Aérodrome :
LOGIN :

S'inscrire | Disclaimer

   EN    FR    IT 

 










Légende :    VFR   VFR Marginal   IFR   IFR Intensif   IFR Très Intensif
Visi : 
Plafond : 
>= 8 km
>= 3000ft
5 à 8 km
1000 à 3000 ft
1500m à 5 km
500 à 1000 ft
800 à 1500m
200 à 500 ft
< 800m
< 200 ft
Symboles :   Orages  Brouillard  Fortes neiges  Fortes précipitations  Vent > 20 kt
SIGMETs :   Divers  Orages  Givrage  Turbulence  Onde Orograph.  Cendres Volcan.







- Altitude de l'aérodrome : 0 ft


ENOA - Oseberg A Platform

DERNIER METAR :
  • 271250Z 35020KT 9999 SCT025 08/00 Q1002 W///S4

METARs EXPIRÉS :
  • 271220Z 36019KT 9999 SCT020 07/02 Q1002 W///S4
  • 271150Z 35021KT 9999 SCT020 07/02 Q1002 W///S4
  • 271120Z 35019KT 9999 SCT020 08/01 Q1002 W///S4
  • 271050Z 33021KT 9999 -SHRA FEW020 SCT025 06/03 Q1002 W///S3
  • 271020Z 35020KT 9999 SCT025 07/03 Q1001 W///S3

TAF ENOA
Valide du 27 à 12h jusqu'au 28 à 12h UTC


2712/2812 35020KT 9999 -SHRA FEW020TCU SCT030
BECMG 2807/2809 29015KT
Pas de NOTAMs connus pour ce terrain.



MET'MAP, la Météo Aéronautique d'un coup d'oeil ! - Copyright ORBIFLY Décembre 2007 - Disclaimer

ORBIFLY MET'MAP TEAM :

Programmation & Développement : Alexandra Zaïnal
Conception & Développement : Baudouin d'Aumeries
Co-Programmation & Développement : Marc-Olivier Méhu
Soutien technique & logistique : Manuel Goepfert

Contact : metmap@orbifly.com




SOURCES & CREDITS :

   NOAA